Time;durP1;ratioP1;P1;durP2;ratioP2;P2;SDS_P1;SDS_P2;PMS_P1;PMS_P2;Temp;Humidity;BMP_temperature;BMP_pressure;BME280_temperature;BME280_humidity;BME280_pressure;Samples;Min_cycle;Max_cycle;Signal;HPM_P1;HPM_P2
2023/09/07 00:00:10;;;;;;;8.83;7.40;;;23.30;1.00;;;;;;5015176;28;20675;-81
2023/09/07 00:02:36;;;;;;;10.70;6.97;;;23.20;1.00;;;;;;5015242;28;20174;-81
2023/09/07 00:05:06;;;;;;;12.87;7.13;;;23.00;1.00;;;;;;5014722;28;20236;-83
2023/09/07 00:07:31;;;;;;;9.73;6.87;;;23.10;1.00;;;;;;5016690;28;20174;-82
2023/09/07 00:09:57;;;;;;;8.93;7.30;;;23.00;1.00;;;;;;5017248;28;20239;-82
2023/09/07 00:12:23;;;;;;;13.10;7.70;;;22.90;1.00;;;;;;5016696;28;20185;-81
2023/09/07 00:14:48;;;;;;;12.57;6.83;;;22.70;1.00;;;;;;5015828;28;20986;-83
2023/09/07 00:17:14;;;;;;;10.20;7.07;;;22.50;1.00;;;;;;5015988;28;20185;-82
2023/09/07 00:19:40;;;;;;;11.30;7.53;;;22.50;1.00;;;;;;5016985;28;20220;-80
2023/09/07 00:22:05;;;;;;;10.97;7.47;;;22.60;1.00;;;;;;5024569;28;20170;-81
2023/09/07 00:24:31;;;;;;;11.17;7.10;;;22.70;1.00;;;;;;5025055;28;20727;-82
2023/09/07 00:26:58;;;;;;;12.23;7.40;;;22.70;1.00;;;;;;5020553;28;20189;-81
2023/09/07 00:29:23;;;;;;;11.53;7.30;;;22.60;1.00;;;;;;5018710;28;20213;-82
2023/09/07 00:31:49;;;;;;;13.73;7.87;;;22.70;1.00;;;;;;5018583;28;20645;-81
2023/09/07 00:34:15;;;;;;;8.50;6.60;;;22.80;1.00;;;;;;5018035;28;20711;-82
2023/09/07 00:36:42;;;;;;;8.87;6.50;;;22.80;1.00;;;;;;5017688;28;20277;-82
2023/09/07 00:39:08;;;;;;;8.60;7.03;;;22.90;1.00;;;;;;5016289;28;20178;-82
2023/09/07 00:41:34;;;;;;;12.03;7.13;;;22.90;1.00;;;;;;5017318;28;20216;-83
2023/09/07 00:44:00;;;;;;;8.73;7.07;;;22.90;1.00;;;;;;5018361;28;20173;-82
2023/09/07 00:46:26;;;;;;;10.83;7.00;;;22.90;1.00;;;;;;5017763;28;20189;-81
2023/09/07 00:48:52;;;;;;;10.20;7.13;;;22.90;1.00;;;;;;5019371;28;20170;-82
2023/09/07 00:51:18;;;;;;;9.53;6.90;;;22.90;1.00;;;;;;5018020;28;20250;-83
2023/09/07 00:53:44;;;;;;;9.83;6.47;;;22.90;1.00;;;;;;5017576;28;20209;-81
2023/09/07 00:56:09;;;;;;;8.43;6.20;;;22.90;1.00;;;;;;5018043;28;20217;-82
2023/09/07 00:58:36;;;;;;;13.33;6.87;;;22.90;1.00;;;;;;5018213;28;20688;-81
2023/09/07 01:01:02;;;;;;;8.60;6.10;;;22.80;1.00;;;;;;5017004;28;20207;-82
2023/09/07 01:03:29;;;;;;;9.57;5.80;;;22.80;1.00;;;;;;5017423;28;20170;-83
2023/09/07 01:06:12;;;;;;;10.00;6.23;;;22.70;1.00;;;;;;5017414;28;20213;-82
2023/09/07 01:08:50;;;;;;;6.40;5.50;;;22.60;1.00;;;;;;5016359;28;20182;-83
2023/09/07 01:11:17;;;;;;;7.93;5.90;;;22.50;1.00;;;;;;5017553;28;20501;-82
2023/09/07 01:13:43;;;;;;;8.50;5.97;;;22.50;1.00;;;;;;5016652;28;20185;-81
2023/09/07 01:16:10;;;;;;;7.47;5.53;;;22.50;1.00;;;;;;5015603;28;20173;-82
2023/09/07 01:18:37;;;;;;;8.60;5.50;;;22.60;1.00;;;;;;5017168;28;20638;-82
2023/09/07 01:21:07;;;;;;;6.00;5.13;;;22.50;1.00;;;;;;5016992;28;20166;-81
2023/09/07 01:23:39;;;;;;;6.00;5.00;;;22.50;1.00;;;;;;5018269;28;20249;-82
2023/09/07 01:26:08;;;;;;;7.50;5.20;;;22.60;1.00;;;;;;5016851;28;20213;-82
2023/09/07 01:28:35;;;;;;;9.27;5.00;;;22.70;1.00;;;;;;5016084;28;20173;-83
2023/09/07 01:31:03;;;;;;;9.03;5.10;;;22.80;1.00;;;;;;5016122;28;20634;-82
2023/09/07 01:33:29;;;;;;;7.23;4.53;;;22.90;1.00;;;;;;5018109;28;20167;-82
2023/09/07 01:35:55;;;;;;;6.93;4.97;;;22.90;99.90;;;;;;5016854;28;20527;-81
2023/09/07 01:38:20;;;;;;;5.80;4.67;;;23.00;99.90;;;;;;5015716;28;20261;-81
2023/09/07 01:40:46;;;;;;;7.87;4.70;;;23.00;99.90;;;;;;5016398;28;20491;-82
2023/09/07 01:43:12;;;;;;;7.77;4.57;;;23.00;99.90;;;;;;5015960;28;20181;-82
2023/09/07 01:45:38;;;;;;;6.17;4.50;;;23.10;99.90;;;;;;5017767;28;20238;-82
2023/09/07 01:48:09;;;;;;;10.13;4.87;;;23.10;99.90;;;;;;5016414;28;20174;-80
2023/09/07 01:50:36;;;;;;;6.27;4.60;;;23.00;99.90;;;;;;5016876;28;20181;-81
2023/09/07 01:53:03;;;;;;;7.97;5.40;;;23.00;99.90;;;;;;5017377;28;20170;-83
2023/09/07 01:55:29;;;;;;;5.90;4.70;;;23.00;99.90;;;;;;5016821;28;20281;-80
2023/09/07 01:57:54;;;;;;;6.50;4.77;;;22.90;99.90;;;;;;5015983;28;20221;-81
2023/09/07 02:00:20;;;;;;;6.27;4.60;;;23.00;99.90;;;;;;5016763;28;20624;-82
2023/09/07 02:02:46;;;;;;;6.90;5.00;;;22.90;99.90;;;;;;5018645;28;20181;-82
2023/09/07 02:05:12;;;;;;;8.03;5.77;;;22.90;99.90;;;;;;5016733;28;20217;-80
2023/09/07 02:07:38;;;;;;;9.50;5.10;;;22.90;1.00;;;;;;5018081;28;20641;-81
2023/09/07 02:10:04;;;;;;;7.40;4.50;;;22.90;99.90;;;;;;5020934;28;20176;-81
2023/09/07 02:12:33;;;;;;;6.37;4.93;;;22.90;99.90;;;;;;5029917;28;20175;-81
2023/09/07 02:15:04;;;;;;;6.43;5.37;;;22.90;99.90;;;;;;5029228;28;20178;-82
2023/09/07 02:17:32;;;;;;;8.20;5.00;;;22.80;99.90;;;;;;5025535;28;20593;-81
2023/09/07 02:19:58;;;;;;;6.27;4.80;;;22.80;99.90;;;;;;5020151;28;20650;-80
2023/09/07 02:22:27;;;;;;;7.00;4.23;;;22.80;99.90;;;;;;5018487;28;20185;-82
2023/09/07 02:24:53;;;;;;;6.60;5.07;;;22.90;99.90;;;;;;5017916;28;20231;-82
2023/09/07 02:27:18;;;;;;;7.00;4.77;;;22.80;99.90;;;;;;5016892;28;20637;-82
2023/09/07 02:29:44;;;;;;;6.67;5.20;;;22.80;99.90;;;;;;5017609;28;20574;-81
2023/09/07 02:32:10;;;;;;;12.47;6.53;;;22.80;1.00;;;;;;5018256;28;20149;-81
2023/09/07 02:34:38;;;;;;;8.23;5.53;;;22.80;1.00;;;;;;5018873;28;20307;-81
2023/09/07 02:37:04;;;;;;;11.37;5.30;;;22.80;1.00;;;;;;5016829;28;20192;-81
2023/09/07 02:39:33;;;;;;;9.17;6.23;;;22.80;1.00;;;;;;5017301;28;20657;-82
2023/09/07 02:41:58;;;;;;;9.23;5.93;;;22.70;1.00;;;;;;5018020;28;20726;-82
2023/09/07 02:44:24;;;;;;;10.97;6.40;;;22.70;1.00;;;;;;5017226;28;20205;-80
2023/09/07 02:46:50;;;;;;;10.07;6.50;;;22.60;1.00;;;;;;5018866;28;20181;-80
2023/09/07 02:49:15;;;;;;;9.27;6.60;;;22.60;1.00;;;;;;5021788;28;20177;-82
2023/09/07 02:51:41;;;;;;;8.47;6.27;;;22.50;1.00;;;;;;5028095;28;20173;-78
2023/09/07 02:54:07;;;;;;;8.23;6.30;;;22.40;1.00;;;;;;5028717;28;20208;-81
2023/09/07 02:56:32;;;;;;;9.60;5.70;;;22.40;1.00;;;;;;5028702;28;20189;-80
2023/09/07 02:58:59;;;;;;;9.00;6.37;;;22.20;1.00;;;;;;5027266;28;20734;-81
2023/09/07 03:01:25;;;;;;;6.73;5.67;;;22.00;1.00;;;;;;5003891;28;20280;-81
2023/09/07 03:03:50;;;;;;;8.27;6.70;;;21.80;1.00;;;;;;5016889;28;20664;-81
2023/09/07 03:06:16;;;;;;;10.67;7.40;;;21.70;1.00;;;;;;5018934;28;20641;-83
2023/09/07 03:08:43;;;;;;;10.97;6.80;;;21.50;1.00;;;;;;5032838;28;20158;-80
2023/09/07 03:11:10;;;;;;;10.33;7.30;;;21.50;1.00;;;;;;5036256;28;20468;-80
2023/09/07 03:13:36;;;;;;;8.90;7.17;;;21.50;1.00;;;;;;5036961;28;20174;-81
2023/09/07 03:16:03;;;;;;;7.80;6.53;;;21.50;1.00;;;;;;5036962;28;20170;-81
2023/09/07 03:18:30;;;;;;;8.37;6.30;;;21.40;1.00;;;;;;5037056;28;20173;-80
2023/09/07 03:20:58;;;;;;;9.90;6.30;;;21.30;1.00;;;;;;5036980;28;20182;-82
2023/09/07 03:23:24;;;;;;;9.53;6.60;;;21.20;1.00;;;;;;5036201;28;20179;-81
2023/09/07 03:25:50;;;;;;;7.37;6.40;;;21.00;1.00;;;;;;5036302;28;20231;-81
2023/09/07 03:28:16;;;;;;;9.00;6.97;;;21.00;1.00;;;;;;5035078;28;20202;-81
2023/09/07 03:30:41;;;;;;;12.23;6.73;;;21.10;1.00;;;;;;5036255;28;20176;-81
2023/09/07 03:33:07;;;;;;;8.70;6.87;;;21.30;1.00;;;;;;5035932;28;20185;-81
2023/09/07 03:35:33;;;;;;;10.17;7.30;;;21.30;1.00;;;;;;5035713;28;20200;-81
2023/09/07 03:38:00;;;;;;;9.00;6.67;;;21.30;1.00;;;;;;5035788;28;20173;-79
2023/09/07 03:40:26;;;;;;;11.20;7.47;;;21.30;1.00;;;;;;5034901;28;20198;-80
2023/09/07 03:42:51;;;;;;;9.80;7.30;;;21.30;1.00;;;;;;5029652;28;20157;-82
2023/09/07 03:45:17;;;;;;;11.83;7.20;;;21.30;1.00;;;;;;5036104;28;20205;-80
2023/09/07 03:47:44;;;;;;;9.37;6.70;;;21.30;1.00;;;;;;5037578;28;20216;-81
2023/09/07 03:50:09;;;;;;;9.83;6.60;;;21.20;1.00;;;;;;5036116;28;20164;-82
2023/09/07 03:52:36;;;;;;;10.50;7.90;;;21.10;1.00;;;;;;5037148;28;20166;-82
2023/09/07 03:55:06;;;;;;;10.77;6.93;;;21.10;1.00;;;;;;5038960;28;20180;-81
2023/09/07 03:57:33;;;;;;;12.43;7.40;;;21.10;1.00;;;;;;5039918;28;20206;-83
2023/09/07 03:59:59;;;;;;;13.23;7.00;;;20.80;1.00;;;;;;5040808;28;20589;-82
2023/09/07 04:02:27;;;;;;;10.20;7.10;;;21.00;1.00;;;;;;5040529;28;20177;-81
2023/09/07 04:04:53;;;;;;;8.60;6.60;;;20.90;1.00;;;;;;5040115;28;20212;-79
2023/09/07 04:07:21;;;;;;;10.30;7.57;;;20.90;1.00;;;;;;5039450;28;20215;-81
2023/09/07 04:09:47;;;;;;;14.37;8.07;;;20.90;1.00;;;;;;5040261;28;20222;-81
2023/09/07 04:12:13;;;;;;;11.57;8.00;;;20.90;1.00;;;;;;5040174;28;20196;-80
2023/09/07 04:14:40;;;;;;;9.70;6.23;;;20.90;1.00;;;;;;5039309;28;20194;-82
2023/09/07 04:17:06;;;;;;;13.73;7.23;;;20.90;1.00;;;;;;5040487;28;20171;-82
2023/09/07 04:19:32;;;;;;;12.13;6.87;;;20.80;1.00;;;;;;5038957;28;20174;-80
2023/09/07 04:21:58;;;;;;;14.27;8.00;;;20.90;1.00;;;;;;5039756;28;20170;-81
2023/09/07 04:24:24;;;;;;;8.23;6.83;;;20.80;1.00;;;;;;5038325;28;20202;-81
2023/09/07 04:26:50;;;;;;;13.43;7.47;;;20.60;1.00;;;;;;5039534;28;20163;-82
2023/09/07 04:29:17;;;;;;;11.27;7.13;;;20.60;1.00;;;;;;5029897;28;20634;-83
2023/09/07 04:31:42;;;;;;;11.13;7.67;;;20.40;1.00;;;;;;5024574;28;20678;-82
2023/09/07 04:34:08;;;;;;;11.67;7.63;;;20.30;1.00;;;;;;5024919;28;20180;-81
2023/09/07 04:36:37;;;;;;;16.00;7.37;;;20.20;1.00;;;;;;5025593;28;20661;-82
2023/09/07 04:39:04;;;;;;;14.90;7.93;;;20.20;1.00;;;;;;5031203;28;20161;-78
2023/09/07 04:41:32;;;;;;;12.73;7.23;;;20.30;1.00;;;;;;5036368;28;20187;-79
2023/09/07 04:44:01;;;;;;;15.17;7.67;;;20.40;1.00;;;;;;5035438;28;20158;-80
2023/09/07 04:46:30;;;;;;;11.50;7.50;;;20.20;1.00;;;;;;5027676;28;20190;-81
2023/09/07 04:48:59;;;;;;;14.20;8.00;;;20.20;1.00;;;;;;5025429;28;20181;-83
2023/09/07 04:51:28;;;;;;;15.47;7.70;;;20.20;1.00;;;;;;5025789;28;20165;-81
2023/09/07 04:53:59;;;;;;;12.70;8.30;;;20.30;1.00;;;;;;5024982;28;20167;-82
2023/09/07 04:56:28;;;;;;;15.13;7.63;;;20.30;1.00;;;;;;5024713;28;20301;-82
2023/09/07 04:58:54;;;;;;;14.73;8.37;;;20.20;1.00;;;;;;5023483;28;20277;-81
2023/09/07 05:01:20;;;;;;;17.47;8.93;;;20.20;1.00;;;;;;5022745;28;20237;-80
2023/09/07 05:03:51;;;;;;;18.50;8.03;;;20.20;1.00;;;;;;5018951;28;20607;-80
2023/09/07 05:06:26;;;;;;;16.90;7.90;;;20.20;1.00;;;;;;5019280;28;20264;-80
2023/09/07 05:08:55;;;;;;;14.93;8.07;;;20.30;1.00;;;;;;5017432;28;20167;-83
2023/09/07 05:11:35;;;;;;;12.43;8.23;;;20.30;1.00;;;;;;5019888;28;20190;-80
2023/09/07 05:18:06;;;;;;;12.37;7.70;;;20.30;1.00;;;;;;5018360;28;20165;-82
2023/09/07 05:20:37;;;;;;;13.37;8.60;;;20.20;1.00;;;;;;5016938;28;20231;-82
2023/09/07 05:23:08;;;;;;;15.40;8.13;;;20.10;1.00;;;;;;5017922;28;20232;-83
2023/09/07 05:28:56;;;;;;;16.70;7.90;;;20.20;1.00;;;;;;5017491;28;20269;-82
2023/09/07 05:31:28;;;;;;;17.23;8.50;;;20.30;1.00;;;;;;5016449;28;20641;-83
2023/09/07 05:33:57;;;;;;;12.13;7.77;;;20.30;1.00;;;;;;5017008;28;20170;-81
2023/09/07 05:36:26;;;;;;;13.23;8.57;;;20.30;1.00;;;;;;5016531;28;20595;-81
2023/09/07 05:38:54;;;;;;;15.57;9.13;;;20.30;1.00;;;;;;5016525;28;20159;-81
2023/09/07 05:41:20;;;;;;;15.47;8.67;;;20.40;1.00;;;;;;5015123;28;20178;-82
2023/09/07 05:43:46;;;;;;;14.33;8.87;;;20.40;1.00;;;;;;5016352;28;20175;-80
2023/09/07 05:46:11;;;;;;;17.20;9.10;;;20.40;1.00;;;;;;5019979;28;20206;-80
2023/09/07 05:48:38;;;;;;;16.23;7.87;;;20.40;1.00;;;;;;5027500;28;20221;-80
2023/09/07 05:51:04;;;;;;;20.13;8.57;;;20.40;1.00;;;;;;5033668;28;20220;-82
2023/09/07 05:53:30;;;;;;;14.93;8.33;;;20.50;1.00;;;;;;5035607;28;20174;-80
2023/09/07 05:55:55;;;;;;;23.93;8.90;;;20.40;1.00;;;;;;5031342;28;20194;-81
2023/09/07 05:58:21;;;;;;;18.30;8.73;;;20.40;1.00;;;;;;5035029;28;20163;-81
2023/09/07 06:00:47;;;;;;;20.40;8.80;;;20.50;1.00;;;;;;5031747;28;20673;-84
2023/09/07 06:03:13;;;;;;;15.07;9.50;;;20.50;1.00;;;;;;5023061;28;20545;-83
2023/09/07 06:05:39;;;;;;;16.47;9.03;;;20.60;1.00;;;;;;5018403;28;20216;-83
2023/09/07 06:08:08;;;;;;;17.40;8.07;;;20.70;1.00;;;;;;5014251;28;20180;-79
2023/09/07 06:10:34;;;;;;;17.27;8.83;;;20.90;1.00;;;;;;5014064;28;20186;-80
2023/09/07 06:13:00;;;;;;;16.70;8.70;;;21.10;1.00;;;;;;5013290;28;20892;-79
2023/09/07 06:15:27;;;;;;;18.67;9.10;;;21.20;1.00;;;;;;5012077;28;20723;-79
2023/09/07 06:17:54;;;;;;;17.63;8.20;;;21.20;1.00;;;;;;5012736;28;20687;-79
2023/09/07 06:20:19;;;;;;;14.40;8.73;;;21.20;1.00;;;;;;5012930;28;20223;-79
2023/09/07 06:22:46;;;;;;;14.47;8.63;;;21.40;1.00;;;;;;5014168;28;20209;-79
2023/09/07 06:25:12;;;;;;;17.50;8.63;;;21.50;1.00;;;;;;5014325;28;20215;-80
2023/09/07 06:27:39;;;;;;;17.03;9.07;;;21.50;1.00;;;;;;5014114;28;20205;-78
2023/09/07 06:30:08;;;;;;;22.37;9.77;;;21.60;1.00;;;;;;5015914;28;20175;-83
2023/09/07 06:32:33;;;;;;;22.23;9.13;;;21.50;1.00;;;;;;5016928;28;20235;-80
2023/09/07 06:34:59;;;;;;;19.67;9.33;;;21.40;1.00;;;;;;5026194;28;20202;-81
2023/09/07 06:37:25;;;;;;;18.40;10.47;;;21.40;1.00;;;;;;5026883;28;20193;-81
2023/09/07 06:39:51;;;;;;;22.77;9.17;;;21.30;1.00;;;;;;5026165;28;20173;-81
2023/09/07 06:42:18;;;;;;;17.10;8.73;;;21.40;1.00;;;;;;5021656;28;20201;-82
2023/09/07 06:44:45;;;;;;;14.33;8.67;;;21.40;1.00;;;;;;5014637;28;20304;-84
2023/09/07 06:47:10;;;;;;;18.27;8.80;;;21.40;1.00;;;;;;5016820;28;20172;-83
2023/09/07 06:49:38;;;;;;;14.83;8.97;;;21.40;1.00;;;;;;5015991;28;20238;-83
2023/09/07 06:52:03;;;;;;;14.73;8.53;;;21.50;1.00;;;;;;5020784;28;20180;-81
2023/09/07 06:54:30;;;;;;;15.47;8.50;;;21.60;1.00;;;;;;5020209;28;20180;-81
2023/09/07 06:56:56;;;;;;;12.10;9.00;;;21.70;1.00;;;;;;5017276;28;20494;-82
2023/09/07 06:59:22;;;;;;;14.60;7.67;;;21.80;1.00;;;;;;5016712;28;20661;-82
2023/09/07 07:01:48;;;;;;;10.93;6.83;;;22.00;1.00;;;;;;5016588;28;20305;-82
2023/09/07 07:04:14;;;;;;;10.87;7.00;;;22.10;1.00;;;;;;5017235;28;20220;-82
2023/09/07 07:06:40;;;;;;;13.50;6.63;;;22.30;1.00;;;;;;5017942;28;20178;-82
2023/09/07 07:09:06;;;;;;;9.27;5.93;;;22.40;1.00;;;;;;5016941;28;20295;-83
2023/09/07 07:11:31;;;;;;;10.37;6.50;;;22.50;1.00;;;;;;5018225;28;20184;-82
2023/09/07 07:13:57;;;;;;;10.00;5.83;;;22.60;99.90;;;;;;5020504;28;20165;-81
2023/09/07 07:16:23;;;;;;;7.73;5.60;;;22.70;99.90;;;;;;5015986;28;20189;-81
2023/09/07 07:18:48;;;;;;;9.27;5.47;;;22.80;99.90;;;;;;5016106;28;20532;-81
2023/09/07 07:21:15;;;;;;;11.13;5.37;;;22.90;99.90;;;;;;5013043;28;20294;-82
2023/09/07 07:23:41;;;;;;;8.83;4.90;;;22.90;99.90;;;;;;5013818;28;20249;-82
2023/09/07 07:26:06;;;;;;;9.03;5.20;;;23.00;99.90;;;;;;5013799;28;20304;-81
2023/09/07 07:28:32;;;;;;;9.23;5.17;;;23.20;99.90;;;;;;5013995;28;20178;-82
2023/09/07 07:30:58;;;;;;;13.80;5.63;;;23.30;99.90;;;;;;5026683;28;20208;-81
2023/09/07 07:33:24;;;;;;;8.77;5.40;;;23.40;99.90;;;;;;5022235;28;21116;-82
2023/09/07 07:35:49;;;;;;;7.70;5.53;;;23.40;99.90;;;;;;5028362;28;20174;-81
2023/09/07 07:38:17;;;;;;;7.10;5.20;;;23.60;99.90;;;;;;5031474;28;20185;-80
2023/09/07 07:40:42;;;;;;;6.00;4.57;;;23.60;99.90;;;;;;5030660;28;20174;-80
2023/09/07 07:43:10;;;;;;;10.10;5.30;;;23.70;99.90;;;;;;5031564;28;20151;-81
2023/09/07 07:45:38;;;;;;;6.87;5.10;;;23.80;99.90;;;;;;5030423;28;20305;-81
2023/09/07 07:48:05;;;;;;;7.07;4.80;;;23.80;99.90;;;;;;5030324;28;20226;-80
2023/09/07 07:50:31;;;;;;;10.13;4.90;;;23.90;99.90;;;;;;5027449;28;20178;-84
2023/09/07 07:52:57;;;;;;;8.23;5.20;;;24.00;92.80;;;;;;5017276;28;20175;-81
2023/09/07 07:55:23;;;;;;;9.77;5.07;;;24.10;99.90;;;;;;5018164;28;20658;-81
2023/09/07 07:57:48;;;;;;;10.47;5.67;;;24.20;25.30;;;;;;5017505;28;20166;-81
2023/09/07 08:00:14;;;;;;;10.03;5.17;;;24.30;1.00;;;;;;5019484;28;20216;-83
2023/09/07 08:02:40;;;;;;;8.57;4.63;;;24.50;1.00;;;;;;5018033;28;20171;-84
2023/09/07 08:05:06;;;;;;;7.03;4.30;;;24.70;1.00;;;;;;5017043;28;20279;-82
2023/09/07 08:07:32;;;;;;;8.53;4.30;;;24.80;1.00;;;;;;5018308;28;20272;-83
2023/09/07 08:09:57;;;;;;;8.20;4.83;;;25.00;1.00;;;;;;5017065;28;20266;-82
2023/09/07 08:12:23;;;;;;;5.33;4.20;;;24.90;1.00;;;;;;5016633;28;20187;-81
2023/09/07 08:14:49;;;;;;;9.53;4.47;;;25.20;1.00;;;;;;5016039;28;20269;-82
2023/09/07 08:17:14;;;;;;;12.80;5.37;;;25.40;1.00;;;;;;5016605;28;20197;-82
2023/09/07 08:19:40;;;;;;;7.23;4.40;;;25.60;99.90;;;;;;5017423;28;20174;-82
2023/09/07 08:22:06;;;;;;;7.03;4.40;;;25.80;99.90;;;;;;5019432;28;20185;-82
2023/09/07 08:24:33;;;;;;;6.17;4.17;;;25.90;99.90;;;;;;5019660;28;20569;-82
2023/09/07 08:27:00;;;;;;;7.33;3.83;;;25.70;1.00;;;;;;5019883;28;20722;-82
2023/09/07 08:29:26;;;;;;;6.47;3.93;;;25.70;48.70;;;;;;5019560;28;20170;-82
2023/09/07 08:31:53;;;;;;;7.80;4.07;;;25.60;91.00;;;;;;5020554;28;20186;-81
2023/09/07 08:34:20;;;;;;;5.60;3.60;;;25.50;99.90;;;;;;5015779;28;20182;-81
2023/09/07 08:36:49;;;;;;;7.40;3.70;;;25.40;1.00;;;;;;5016564;28;20170;-82
2023/09/07 08:39:15;;;;;;;9.80;3.93;;;25.30;8.10;;;;;;5018645;28;20608;-82
2023/09/07 08:41:45;;;;;;;6.33;3.43;;;25.40;99.90;;;;;;5017138;28;20180;-82
2023/09/07 08:44:14;;;;;;;7.67;3.70;;;25.70;1.00;;;;;;5018500;28;20180;-83
2023/09/07 08:46:41;;;;;;;6.90;3.73;;;25.90;1.00;;;;;;5016233;28;20247;-84
2023/09/07 08:49:08;;;;;;;7.70;3.97;;;26.20;99.90;;;;;;5017953;28;20178;-83
2023/09/07 08:51:37;;;;;;;8.57;3.60;;;26.30;75.30;;;;;;5018023;28;20294;-83
2023/09/07 08:54:05;;;;;;;8.50;3.60;;;26.40;99.90;;;;;;5021831;28;20185;-83
2023/09/07 08:56:31;;;;;;;5.78;3.65;;;26.70;1.00;;;;;;5029719;28;20189;-84
2023/09/07 08:58:57;;;;;;;4.50;3.42;;;26.50;96.30;;;;;;5031669;28;20163;-82
2023/09/07 09:01:23;;;;;;;5.60;3.87;;;26.20;1.00;;;;;;5020489;28;20190;-81
2023/09/07 09:03:50;;;;;;;6.60;3.33;;;26.10;1.00;;;;;;5018937;28;20178;-83
2023/09/07 09:06:24;;;;;;;4.73;3.40;;;26.00;1.00;;;;;;5016971;28;20283;-82
2023/09/07 09:08:53;;;;;;;5.63;3.53;;;26.10;1.00;;;;;;5017559;28;20196;-82
2023/09/07 09:11:19;;;;;;;6.93;3.90;;;26.10;1.00;;;;;;5016701;28;20225;-83
2023/09/07 09:13:46;;;;;;;3.97;3.37;;;26.10;1.00;;;;;;5016631;28;20238;-83
2023/09/07 09:16:13;;;;;;;4.80;3.80;;;26.50;99.90;;;;;;5017564;28;20177;-83
2023/09/07 09:18:47;;;;;;;4.80;3.40;;;26.70;60.80;;;;;;5018015;28;20298;-83
2023/09/07 09:21:14;;;;;;;7.10;3.57;;;26.70;99.90;;;;;;5018073;28;20181;-84
2023/09/07 09:23:41;;;;;;;9.63;8.63;;;26.50;1.00;;;;;;5018497;28;20231;-83
2023/09/07 09:26:06;;;;;;;7.70;4.67;;;26.50;99.90;;;;;;5017915;28;20277;-82
2023/09/07 09:28:33;;;;;;;5.70;3.63;;;26.50;99.90;;;;;;5018007;28;20201;-83
2023/09/07 09:31:03;;;;;;;5.97;3.20;;;26.60;1.00;;;;;;5019242;28;20241;-83
2023/09/07 09:33:35;;;;;;;5.35;3.13;;;26.80;1.00;;;;;;5002219;28;20189;-82
2023/09/07 09:36:14;;;;;;;4.10;3.22;;;26.90;1.00;;;;;;5024161;28;20235;-83
2023/09/07 09:38:47;;;;;;;4.47;3.03;;;26.80;1.00;;;;;;5021705;28;20212;-82
2023/09/07 09:41:14;;;;;;;9.10;3.50;;;26.70;1.00;;;;;;5018537;28;20178;-84
2023/09/07 09:43:40;;;;;;;7.30;3.33;;;26.70;99.90;;;;;;5017665;28;20178;-83
2023/09/07 09:46:07;;;;;;;5.38;3.40;;;27.00;1.00;;;;;;5016402;28;20210;-82
2023/09/07 09:48:34;;;;;;;7.33;3.43;;;27.20;1.00;;;;;;5019371;28;20174;-82
2023/09/07 09:51:00;;;;;;;6.82;3.50;;;27.10;99.90;;;;;;5015612;28;20194;-83
2023/09/07 09:53:28;;;;;;;4.50;3.28;;;26.90;99.90;;;;;;5015704;28;20184;-81
2023/09/07 09:55:54;;;;;;;6.83;3.67;;;26.80;1.00;;;;;;5017420;28;20248;-82
2023/09/07 09:58:19;;;;;;;12.47;4.40;;;26.80;1.00;;;;;;5018376;28;20177;-84
2023/09/07 10:00:48;;;;;;;9.50;4.55;;;27.00;48.10;;;;;;5018277;28;20192;-85
2023/09/07 10:03:36;;;;;;;6.70;3.72;;;27.20;99.90;;;;;;5020214;28;20170;-83
2023/09/07 10:06:09;;;;;;;5.00;3.50;;;27.20;99.90;;;;;;5019334;28;20220;-84
2023/09/07 10:08:35;;;;;;;6.60;3.63;;;27.00;1.00;;;;;;5016553;28;20286;-82
2023/09/07 10:11:11;;;;;;;4.80;3.50;;;26.90;99.90;;;;;;5020027;28;20195;-83
2023/09/07 10:13:37;;;;;;;4.55;3.50;;;27.00;99.90;;;;;;5018122;28;20174;-84
2023/09/07 10:16:09;;;;;;;8.15;4.00;;;27.30;99.90;;;;;;5019427;28;20166;-82
2023/09/07 10:18:37;;;;;;;8.70;4.05;;;27.60;1.00;;;;;;5017735;28;20178;-83
2023/09/07 10:21:03;;;;;;;5.97;3.90;;;27.70;99.90;;;;;;5013807;28;20181;-83
2023/09/07 10:23:38;;;;;;;7.05;4.00;;;27.80;61.40;;;;;;5016296;28;20174;-81
2023/09/07 10:26:05;;;;;;;7.20;3.88;;;28.00;99.90;;;;;;5018895;28;20268;-82
2023/09/07 10:28:30;;;;;;;8.48;4.22;;;28.20;1.00;;;;;;5031379;28;20173;-81
2023/09/07 10:31:00;;;;;;;7.72;3.90;;;28.40;1.00;;;;;;5034515;28;20190;-82
2023/09/07 10:33:26;;;;;;;5.05;3.90;;;28.20;1.00;;;;;;5035616;28;20166;-79
2023/09/07 10:35:52;;;;;;;7.10;3.90;;;28.00;99.90;;;;;;5032920;28;20220;-82
2023/09/07 10:38:19;;;;;;;4.40;3.58;;;27.90;99.90;;;;;;5015837;28;20171;-83
2023/09/07 10:40:48;;;;;;;4.90;3.60;;;28.10;99.90;;;;;;5018679;28;20190;-82
2023/09/07 10:43:32;;;;;;;4.78;3.67;;;28.30;38.60;;;;;;5014422;28;20181;-82
2023/09/07 10:46:00;;;;;;;5.00;3.78;;;28.40;1.00;;;;;;5015823;28;20702;-82
2023/09/07 10:48:28;;;;;;;4.07;3.67;;;28.50;99.90;;;;;;5030948;28;20270;-82
2023/09/07 10:50:54;;;;;;;8.07;3.78;;;28.60;9.50;;;;;;5032138;28;20158;-80
2023/09/07 10:53:31;;;;;;;5.68;3.83;;;28.70;66.10;;;;;;5031697;28;20246;-81
2023/09/07 10:55:59;;;;;;;6.25;3.90;;;28.70;99.90;;;;;;5032522;28;20190;-78
2023/09/07 10:58:35;;;;;;;7.07;3.80;;;28.70;99.90;;;;;;5030120;28;20170;-81
2023/09/07 11:01:04;;;;;;;8.25;4.20;;;28.50;1.00;;;;;;5022261;28;20320;-81
2023/09/07 11:03:31;;;;;;;7.85;4.63;;;28.20;99.90;;;;;;5028841;28;20158;-82
2023/09/07 11:06:06;;;;;;;7.50;3.95;;;28.20;1.00;;;;;;5028447;28;20194;-80
2023/09/07 11:08:35;;;;;;;7.60;4.38;;;28.40;1.00;;;;;;5032031;28;20166;-83
2023/09/07 11:11:02;;;;;;;7.10;4.07;;;28.50;1.00;;;;;;5026820;28;20173;-83
2023/09/07 11:13:28;;;;;;;7.28;4.10;;;28.40;1.00;;;;;;5027640;28;20174;-82
2023/09/07 11:15:55;;;;;;;4.63;3.90;;;28.50;1.00;;;;;;5022087;28;20193;-83
2023/09/07 11:18:22;;;;;;;9.38;4.50;;;28.40;99.90;;;;;;5014553;28;20205;-81
2023/09/07 11:20:49;;;;;;;6.45;4.32;;;28.40;1.00;;;;;;5014033;28;20174;-82
2023/09/07 11:23:17;;;;;;;9.23;4.03;;;28.60;99.90;;;;;;5013430;28;20169;-81
2023/09/07 11:25:43;;;;;;;12.85;4.70;;;28.90;95.80;;;;;;5014692;28;20224;-82
2023/09/07 11:28:10;;;;;;;15.02;4.15;;;28.90;99.90;;;;;;5013116;28;20265;-82
2023/09/07 11:30:35;;;;;;;5.68;5.03;;;29.20;1.00;;;;;;5014283;28;20267;-81
2023/09/07 11:33:06;;;;;;;5.97;4.10;;;29.10;1.00;;;;;;5014732;28;20685;-80
2023/09/07 11:35:32;;;;;;;4.53;3.33;;;28.70;10.40;;;;;;5016619;28;20162;-81
2023/09/07 11:38:03;;;;;;;4.45;3.70;;;28.50;1.00;;;;;;5016232;28;20173;-79
2023/09/07 11:40:30;;;;;;;5.28;3.70;;;28.40;1.00;;;;;;5012416;28;20181;-80
2023/09/07 11:42:57;;;;;;;6.53;3.47;;;28.40;1.00;;;;;;5014917;28;20201;-82
2023/09/07 11:45:23;;;;;;;5.57;3.20;;;28.40;1.00;;;;;;5014694;28;20228;-81
2023/09/07 11:47:48;;;;;;;6.88;3.63;;;28.30;1.00;;;;;;5015631;28;20634;-83
2023/09/07 11:50:17;;;;;;;4.15;2.95;;;28.30;99.90;;;;;;5014890;28;20248;-80
2023/09/07 11:52:43;;;;;;;7.85;3.75;;;28.40;99.90;;;;;;5012367;28;20178;-82
2023/09/07 11:55:10;;;;;;;5.22;2.92;;;28.60;99.90;;;;;;5014160;28;20673;-83
2023/09/07 11:57:36;;;;;;;4.78;2.85;;;28.70;99.90;;;;;;5013420;28;20657;-82
2023/09/07 12:00:04;;;;;;;7.07;3.28;;;28.80;99.90;;;;;;5013538;28;20198;-83
2023/09/07 12:02:30;;;;;;;7.28;2.97;;;29.00;99.90;;;;;;5014230;28;20208;-83
2023/09/07 12:04:56;;;;;;;6.28;3.25;;;29.20;1.00;;;;;;5015571;28;20198;-82
2023/09/07 12:07:22;;;;;;;7.20;3.20;;;29.40;35.60;;;;;;5016072;28;20177;-82
2023/09/07 12:09:48;;;;;;;7.00;3.33;;;29.60;1.00;;;;;;5016067;28;20170;-81
2023/09/07 12:12:14;;;;;;;4.20;2.90;;;29.90;1.00;;;;;;5017065;28;20171;-81
2023/09/07 12:14:39;;;;;;;5.47;3.25;;;29.60;1.00;;;;;;5016270;28;20178;-82
2023/09/07 12:17:05;;;;;;;4.35;2.92;;;29.40;99.90;;;;;;5020017;28;20170;-80
2023/09/07 12:19:31;;;;;;;5.78;2.75;;;29.20;99.90;;;;;;5018902;28;20203;-80
2023/09/07 12:21:57;;;;;;;6.25;3.10;;;29.10;99.90;;;;;;5017920;28;20641;-81
2023/09/07 12:24:23;;;;;;;6.50;3.20;;;29.30;1.00;;;;;;5019521;28;20176;-82
2023/09/07 12:26:48;;;;;;;7.13;3.03;;;29.70;99.90;;;;;;5019713;28;20174;-83
2023/09/07 12:29:14;;;;;;;6.45;3.08;;;29.60;99.90;;;;;;5018776;28;20753;-82
2023/09/07 12:31:40;;;;;;;7.40;3.67;;;29.60;1.00;;;;;;5018886;28;20174;-79
2023/09/07 12:34:06;;;;;;;9.70;3.25;;;29.50;99.90;;;;;;5021571;28;20174;-84
2023/09/07 12:36:31;;;;;;;8.45;3.38;;;29.40;99.90;;;;;;5020709;28;20167;-81
2023/09/07 12:39:01;;;;;;;5.25;3.03;;;29.20;1.00;;;;;;5020127;28;20174;-80
2023/09/07 12:41:30;;;;;;;4.60;3.60;;;29.30;73.30;;;;;;5021412;28;20186;-82
2023/09/07 12:43:56;;;;;;;4.72;3.53;;;29.40;1.00;;;;;;5020959;28;20220;-81
2023/09/07 12:46:22;;;;;;;5.85;3.30;;;29.30;27.40;;;;;;5020308;28;20218;-82
2023/09/07 12:48:48;;;;;;;6.13;3.50;;;29.60;1.00;;;;;;5021377;28;20185;-82
2023/09/07 12:51:13;;;;;;;12.35;3.55;;;29.70;1.00;;;;;;5017850;28;20217;-83
2023/09/07 12:53:39;;;;;;;4.55;2.97;;;29.70;99.90;;;;;;5019952;28;20170;-83
2023/09/07 12:56:05;;;;;;;7.50;3.67;;;30.00;99.90;;;;;;5017392;28;20202;-82